createdAt,value
2022-08-04T00:02:11.259Z,99803.09
2022-08-04T00:07:44.775Z,99807.20
2022-08-04T00:12:51.264Z,99802.23
2022-08-04T00:18:04.978Z,99803.73
2022-08-04T00:23:09.759Z,99803.88
2022-08-04T00:28:13.973Z,99803.98
2022-08-04T00:33:21.072Z,99801.55
2022-08-04T00:38:25.850Z,99796.14
2022-08-04T00:44:04.403Z,99801.39
2022-08-04T00:49:28.342Z,99803.60
2022-08-04T00:54:38.512Z,99807.13
2022-08-04T01:00:02.959Z,99803.58
2022-08-04T01:05:37.970Z,99801.50
2022-08-04T01:10:59.151Z,99804.02
2022-08-04T01:16:08.294Z,99803.48
2022-08-04T01:21:29.507Z,99802.52
2022-08-04T01:26:42.512Z,99801.64
2022-08-04T01:31:58.409Z,99804.09
2022-08-04T01:37:56.075Z,99806.58
2022-08-04T01:43:02.221Z,99811.02
2022-08-04T01:48:07.947Z,99808.13
2022-08-04T01:53:11.542Z,99808.77
2022-08-04T01:58:18.297Z,99807.40
2022-08-04T02:03:21.316Z,99805.10
2022-08-04T02:09:08.150Z,99797.79
2022-08-04T02:14:42.986Z,99803.35
2022-08-04T02:19:48.729Z,99802.95
2022-08-04T02:25:05.231Z,99800.74
2022-08-04T02:30:09.161Z,99797.92
2022-08-04T02:35:20.915Z,99793.59
2022-08-04T02:40:26.857Z,99786.72
2022-08-04T02:45:32.259Z,99787.20
2022-08-04T02:50:37.516Z,99784.69
2022-08-04T02:55:50.448Z,99783.96
2022-08-04T03:00:54.515Z,99789.39
2022-08-04T03:06:41.784Z,99789.02
2022-08-04T03:12:23.041Z,99785.38
2022-08-04T03:17:53.814Z,99789.25
2022-08-04T03:23:50.828Z,99790.35
2022-08-04T03:29:36.418Z,99794.43
2022-08-04T03:35:47.514Z,99798.77
2022-08-04T03:41:50.857Z,99803.39
2022-08-04T03:46:46.774Z,99805.13
2022-08-04T03:52:27.416Z,99807.21
2022-08-04T03:58:30.637Z,99811.73
2022-08-04T04:04:09.574Z,99813.67
2022-08-04T04:09:58.001Z,99813.52
2022-08-04T04:15:31.504Z,99818.20
2022-08-04T04:21:14.260Z,99825.90
2022-08-04T04:26:35.038Z,99829.81
2022-08-04T04:32:03.091Z,99830.64
2022-08-04T04:37:51.250Z,99830.39
2022-08-04T04:43:11.947Z,99834.81
2022-08-04T04:48:48.758Z,99843.30
2022-08-04T04:54:00.594Z,99843.67
2022-08-04T04:59:10.246Z,99846.14
2022-08-04T05:04:35.035Z,99849.15
2022-08-04T05:10:34.687Z,99846.52
2022-08-04T05:15:43.517Z,99849.42
2022-08-04T05:20:57.456Z,99853.44
2022-08-04T05:26:09.023Z,99857.30
2022-08-04T05:31:19.177Z,99865.52
2022-08-04T05:36:41.091Z,99867.74
2022-08-04T05:41:48.134Z,99863.43
2022-08-04T05:46:59.335Z,99867.09
2022-08-04T05:52:04.827Z,99871.17
2022-08-04T05:57:10.028Z,99872.92
2022-08-04T06:02:18.011Z,99872.12
2022-08-04T06:07:21.719Z,99878.21
2022-08-04T06:12:36.441Z,99877.24
2022-08-04T06:18:33.814Z,99882.09
2022-08-04T06:23:15.243Z,99882.55
2022-08-04T06:28:20.132Z,99880.05
2022-08-04T06:33:54.252Z,99877.71
2022-08-04T06:39:01.417Z,99874.69
2022-08-04T06:44:10.180Z,99874.55
2022-08-04T06:49:14.157Z,99870.89
2022-08-04T06:54:17.240Z,99874.73
2022-08-04T06:59:24.445Z,99877.23
2022-08-04T07:04:28.379Z,99877.05
2022-08-04T07:09:32.004Z,99872.96
2022-08-04T07:14:36.679Z,99873.95
2022-08-04T07:19:39.709Z,99876.74
2022-08-04T07:24:43.313Z,99874.21
2022-08-04T07:29:48.418Z,99872.59
2022-08-04T07:34:52.748Z,99878.67
2022-08-04T07:39:56.420Z,99881.27
2022-08-04T07:44:59.842Z,99880.71
2022-08-04T07:50:04.571Z,99880.27
2022-08-04T07:55:08.482Z,99877.34
2022-08-04T08:00:15.199Z,99877.50
2022-08-04T08:05:20.629Z,99874.58
2022-08-04T08:10:25.563Z,99872.73
2022-08-04T08:15:29.097Z,99872.85
2022-08-04T08:20:35.593Z,99873.94
2022-08-04T08:25:38.993Z,99874.94
2022-08-04T08:30:41.998Z,99875.87
2022-08-04T08:36:03.743Z,99881.16
2022-08-04T08:41:18.971Z,99878.22
2022-08-04T08:46:49.889Z,99882.23
2022-08-04T08:52:05.112Z,99875.50
2022-08-04T08:57:59.550Z,99874.30
2022-08-04T09:03:34.412Z,99873.89
2022-08-04T09:08:46.212Z,99875.84
2022-08-04T09:13:57.339Z,99878.19
2022-08-04T09:19:38.766Z,99875.19
2022-08-04T09:25:09.079Z,99867.27
2022-08-04T09:30:17.705Z,99874.18
2022-08-04T09:35:49.173Z,99863.60
2022-08-04T09:41:40.107Z,99864.64
2022-08-04T09:47:00.194Z,99861.41
2022-08-04T09:52:31.280Z,99862.72
2022-08-04T09:57:53.645Z,99867.91
2022-08-04T10:03:01.215Z,99855.91
2022-08-04T10:08:18.795Z,99855.59
2022-08-04T10:14:27.065Z,99852.85
2022-08-04T10:19:37.710Z,99849.05
2022-08-04T10:25:37.444Z,99843.67
2022-08-04T10:31:01.651Z,99840.00
2022-08-04T10:36:13.441Z,99834.16
2022-08-04T10:41:42.646Z,99830.03
2022-08-04T10:46:55.956Z,99824.45
2022-08-04T10:52:17.077Z,99828.23
2022-08-04T10:57:33.251Z,99822.45
2022-08-04T11:02:45.191Z,99820.85
2022-08-04T11:07:54.090Z,99814.20
2022-08-04T11:13:29.819Z,99810.26
2022-08-04T11:19:09.062Z,99806.69
2022-08-04T11:24:34.091Z,99801.58
2022-08-04T11:30:07.489Z,99808.63
2022-08-04T11:35:26.595Z,99805.84
2022-08-04T11:41:02.865Z,99806.69
2022-08-04T11:46:18.624Z,99798.77
2022-08-04T11:51:23.590Z,99797.59
2022-08-04T11:56:37.194Z,99800.24
2022-08-04T12:01:44.011Z,99794.30
2022-08-04T12:13:21.511Z,99786.84
2022-08-04T12:18:43.359Z,99780.34
2022-08-04T12:23:49.838Z,99770.77
2022-08-04T12:29:11.504Z,99768.26
2022-08-04T12:34:31.116Z,99767.27
2022-08-04T12:40:21.313Z,99764.50
2022-08-04T12:45:09.274Z,99757.73
2022-08-04T12:50:16.870Z,99753.02
2022-08-04T12:55:24.364Z,99752.42
2022-08-04T13:00:40.015Z,99750.78
2022-08-04T13:05:45.819Z,99746.45
2022-08-04T13:10:53.924Z,99744.30
2022-08-04T13:15:59.841Z,99740.98
2022-08-04T13:22:02.312Z,99736.77
2022-08-04T13:27:16.422Z,99724.77
2022-08-04T13:32:23.875Z,99719.23
2022-08-04T13:37:37.328Z,99717.60
2022-08-04T13:42:46.706Z,99720.34
2022-08-04T13:47:58.434Z,99717.42
2022-08-04T13:53:21.998Z,99714.53
2022-08-04T13:58:26.725Z,99714.65
2022-08-04T14:03:53.367Z,99710.71
2022-08-04T14:09:19.957Z,99706.27
2022-08-04T14:14:28.479Z,99706.80
2022-08-04T14:19:46.669Z,99704.22
2022-08-04T14:25:04.501Z,99701.27
2022-08-04T14:30:35.480Z,99700.20
2022-08-04T14:35:50.195Z,99691.20
2022-08-04T14:41:00.076Z,99694.11
2022-08-04T14:46:06.196Z,99692.45
2022-08-04T14:51:17.007Z,99688.30
2022-08-04T14:56:46.917Z,99681.34
2022-08-04T15:02:00.351Z,99685.04
2022-08-04T15:07:05.494Z,99682.92
2022-08-04T15:12:10.642Z,99682.20
2022-08-04T15:17:29.362Z,99679.83
2022-08-04T15:22:33.864Z,99678.09
2022-08-04T15:27:40.733Z,99677.02
2022-08-04T15:32:52.278Z,99675.54
2022-08-04T15:37:58.824Z,99673.52
2022-08-04T15:43:16.505Z,99669.52
2022-08-04T15:48:20.233Z,99667.79
2022-08-04T15:53:23.749Z,99668.48
2022-08-04T15:58:55.290Z,99666.05
2022-08-04T16:04:01.429Z,99660.19
2022-08-04T16:09:05.565Z,99655.84
2022-08-04T16:14:10.982Z,99654.05
2022-08-04T16:20:01.994Z,99654.67
2022-08-04T16:25:07.319Z,99647.82
2022-08-04T16:30:15.106Z,99652.34
2022-08-04T16:35:28.678Z,99652.89
2022-08-04T16:40:39.058Z,99654.61
2022-08-04T16:46:04.351Z,99652.71
2022-08-04T16:51:10.019Z,99649.08
2022-08-04T16:56:17.571Z,99645.89
2022-08-04T17:01:33.034Z,99648.15
2022-08-04T17:06:44.722Z,99655.17
2022-08-04T17:11:48.740Z,99646.23
2022-08-04T17:16:53.359Z,99643.93
2022-08-04T17:22:07.449Z,99643.13
2022-08-04T17:28:20.169Z,99641.29
2022-08-04T17:32:36.594Z,99645.00
2022-08-04T17:37:53.236Z,99646.75
2022-08-04T17:44:03.180Z,99643.41
2022-08-04T17:48:30.899Z,99641.64
2022-08-04T17:54:02.951Z,99650.91
2022-08-04T17:59:55.664Z,99650.45
2022-08-04T18:05:07.661Z,99654.58
2022-08-04T18:10:33.095Z,99660.42
2022-08-04T18:15:40.771Z,99660.98
2022-08-04T18:20:50.343Z,99672.13
2022-08-04T18:25:53.533Z,99668.35
2022-08-04T18:30:56.651Z,99666.58
2022-08-04T18:36:37.091Z,99669.87
2022-08-04T18:41:23.751Z,99669.89
2022-08-04T18:46:27.264Z,99667.02
2022-08-04T18:51:30.762Z,99672.66
2022-08-04T18:56:37.475Z,99676.83
2022-08-04T19:02:12.818Z,99678.60
2022-08-04T19:07:24.541Z,99678.09
2022-08-04T19:12:29.348Z,99677.11
2022-08-04T19:17:53.219Z,99677.14
2022-08-04T19:24:11.301Z,99677.33
2022-08-04T19:28:21.705Z,99678.48
2022-08-04T19:33:25.501Z,99685.61
2022-08-04T19:38:35.079Z,99679.71
2022-08-04T19:43:43.739Z,99676.48
2022-08-04T19:49:00.395Z,99678.88
2022-08-04T19:54:14.894Z,99678.64
2022-08-04T19:59:20.381Z,99679.83
2022-08-04T20:04:25.807Z,99683.13
2022-08-04T20:09:29.025Z,99686.08
2022-08-04T20:14:40.794Z,99685.59
2022-08-04T20:19:51.416Z,99688.13
2022-08-04T20:25:10.924Z,99687.71
2022-08-04T20:30:22.062Z,99688.52
2022-08-04T20:35:26.687Z,99689.19
2022-08-04T20:40:30.666Z,99687.17
2022-08-04T20:45:56.823Z,99685.84
2022-08-04T20:50:57.025Z,99689.12
2022-08-04T20:56:00.534Z,99684.81
2022-08-04T21:01:03.744Z,99688.99
2022-08-04T21:06:08.984Z,99693.48
2022-08-04T21:11:13.463Z,99693.02
2022-08-04T21:16:54.989Z,99690.13
2022-08-04T21:21:41.421Z,99691.38
2022-08-04T21:26:54.133Z,99693.55
2022-08-04T21:32:00.113Z,99690.44
2022-08-04T21:37:04.238Z,99686.61
2022-08-04T21:42:29.011Z,99686.73
2022-08-04T21:47:46.240Z,99687.40
2022-08-04T21:52:52.208Z,99684.55
2022-08-04T21:57:55.730Z,99685.73
2022-08-04T22:03:03.484Z,99686.91
2022-08-04T22:08:06.544Z,99683.95
2022-08-04T22:13:23.010Z,99685.31
2022-08-04T22:18:27.876Z,99686.44
2022-08-04T22:23:45.189Z,99686.35
2022-08-04T22:28:51.133Z,99686.92
2022-08-04T22:33:56.148Z,99686.09
2022-08-04T22:39:06.915Z,99681.84
2022-08-04T22:44:15.154Z,99679.52
2022-08-04T22:49:19.046Z,99679.38
2022-08-04T22:54:29.597Z,99678.09
2022-08-04T22:59:32.931Z,99675.98
2022-08-04T23:04:36.468Z,99674.74
2022-08-04T23:09:49.926Z,99673.11
2022-08-04T23:14:58.000Z,99664.71
2022-08-04T23:20:01.302Z,99663.87
2022-08-04T23:25:04.931Z,99662.66
2022-08-04T23:30:08.572Z,99654.88
2022-08-04T23:35:11.840Z,99650.29
2022-08-04T23:40:32.339Z,99651.21
2022-08-04T23:46:04.593Z,99650.61
2022-08-04T23:51:14.318Z,99643.88
2022-08-04T23:56:19.587Z,99639.63
